createdAt,value
2023-05-25T00:00:32.965Z,80.33
2023-05-25T00:01:33.810Z,80.63
2023-05-25T00:02:34.874Z,80.63
2023-05-25T00:03:35.431Z,81.38
2023-05-25T00:04:39.721Z,82.14
2023-05-25T00:05:36.633Z,82.55
2023-05-25T00:06:37.610Z,82.55
2023-05-25T00:07:38.457Z,82.65
2023-05-25T00:08:39.432Z,83.51
2023-05-25T00:09:40.068Z,83.92
2023-05-25T00:10:40.697Z,84.03
2023-05-25T00:11:44.167Z,83.17
2023-05-25T00:12:42.308Z,82.65
2023-05-25T00:13:42.888Z,82.10
2023-05-25T00:14:43.349Z,81.56
2023-05-25T00:15:44.384Z,80.94
2023-05-25T00:16:45.043Z,80.29
2023-05-25T00:17:45.666Z,79.47
2023-05-25T00:18:46.064Z,78.45
2023-05-25T00:19:47.027Z,78.04
2023-05-25T00:20:48.007Z,77.63
2023-05-25T00:21:49.005Z,77.53
2023-05-25T00:22:52.299Z,78.04
2023-05-25T00:23:50.699Z,78.04
2023-05-25T00:24:51.731Z,78.65
2023-05-25T00:25:52.845Z,79.06
2023-05-25T00:26:53.263Z,78.86
2023-05-25T00:27:54.375Z,79.20
2023-05-25T00:28:54.855Z,79.71
2023-05-25T00:29:57.296Z,79.61
2023-05-25T00:30:56.783Z,80.46
2023-05-25T00:31:57.284Z,80.88
2023-05-25T00:32:58.249Z,81.18
2023-05-25T00:33:59.111Z,81.84
2023-05-25T00:35:00.109Z,81.63
2023-05-25T00:37:49.947Z,81.52
2023-05-25T00:38:50.950Z,81.49
2023-05-25T00:39:51.393Z,80.98
2023-05-25T00:40:52.300Z,80.88
2023-05-25T00:41:52.798Z,80.77
2023-05-25T00:42:53.703Z,80.57
2023-05-25T00:43:54.886Z,80.26
2023-05-25T00:44:55.260Z,80.12
2023-05-25T00:45:57.156Z,80.12
2023-05-25T00:46:57.066Z,80.12
2023-05-25T00:47:57.943Z,80.46
2023-05-25T00:48:58.884Z,80.57
2023-05-25T00:49:59.802Z,80.67
2023-05-25T00:51:00.746Z,80.81
2023-05-25T00:52:01.865Z,81.12
2023-05-25T00:53:02.696Z,81.22
2023-05-25T00:54:03.348Z,81.22
2023-05-25T00:55:03.824Z,81.12
2023-05-25T00:56:04.804Z,81.32
2023-05-25T00:57:05.799Z,81.52
2023-05-25T00:59:54.869Z,81.22
2023-05-25T01:00:56.470Z,81.32
2023-05-25T01:01:56.071Z,81.52
2023-05-25T01:02:57.775Z,81.73
2023-05-25T01:03:57.867Z,82.18
2023-05-25T01:04:58.343Z,82.49
2023-05-25T01:07:47.871Z,82.04
2023-05-25T01:08:48.902Z,81.12
2023-05-25T01:09:49.850Z,80.77
2023-05-25T01:10:50.757Z,80.36
2023-05-25T01:11:51.643Z,79.71
2023-05-25T01:12:52.615Z,79.30
2023-05-25T01:13:54.835Z,79.10
2023-05-25T01:14:54.293Z,78.79
2023-05-25T01:15:55.247Z,79.20
2023-05-25T01:16:56.128Z,79.10
2023-05-25T01:17:57.068Z,79.16
2023-05-25T01:18:57.942Z,79.20
2023-05-25T01:20:09.851Z,79.61
2023-05-25T01:21:00.737Z,79.96
2023-05-25T01:22:00.190Z,80.36
2023-05-25T01:23:01.161Z,80.16
2023-05-25T01:24:02.089Z,80.05
2023-05-25T01:25:02.970Z,80.81
2023-05-25T01:26:03.910Z,81.12
2023-05-25T01:27:05.009Z,81.12
2023-05-25T01:28:20.575Z,81.52
2023-05-25T01:29:06.620Z,81.98
2023-05-25T01:30:07.577Z,82.39
2023-05-25T01:31:08.192Z,82.49
2023-05-25T01:32:08.607Z,82.59
2023-05-25T01:33:09.678Z,82.90
2023-05-25T01:34:10.132Z,82.59
2023-05-25T01:35:12.237Z,82.49
2023-05-25T01:36:11.690Z,82.59
2023-05-25T01:37:12.625Z,83.76
2023-05-25T01:38:13.572Z,84.00
2023-05-25T01:39:14.564Z,84.10
2023-05-25T01:40:15.057Z,84.41
2023-05-25T01:41:16.045Z,84.41
2023-05-25T01:42:16.540Z,84.20
2023-05-25T01:43:34.200Z,83.86
2023-05-25T01:44:18.257Z,83.76
2023-05-25T01:45:18.675Z,83.55
2023-05-25T01:46:19.243Z,83.25
2023-05-25T01:47:19.714Z,83.00
2023-05-25T01:48:20.783Z,82.69
2023-05-25T01:49:21.629Z,82.28
2023-05-25T01:52:11.452Z,80.88
2023-05-25T01:53:12.454Z,80.16
2023-05-25T01:54:12.932Z,79.64
2023-05-25T01:55:13.322Z,79.30
2023-05-25T01:56:14.222Z,79.64
2023-05-25T01:57:15.129Z,79.85
2023-05-25T02:00:05.673Z,80.40
2023-05-25T02:01:05.728Z,80.60
2023-05-25T02:02:06.171Z,80.71
2023-05-25T02:03:07.088Z,81.26
2023-05-25T02:04:08.091Z,81.36
2023-05-25T02:05:08.592Z,81.67
2023-05-25T02:07:58.243Z,81.98
2023-05-25T02:08:58.729Z,82.08
2023-05-25T02:09:59.669Z,82.73
2023-05-25T02:11:00.653Z,83.04
2023-05-25T02:12:01.538Z,83.07
2023-05-25T02:13:02.503Z,83.28
2023-05-25T02:15:52.233Z,84.76
2023-05-25T02:16:52.775Z,84.96
2023-05-25T02:17:53.244Z,84.96
2023-05-25T02:18:54.131Z,85.31
2023-05-25T02:19:55.109Z,85.41
2023-05-25T02:20:55.508Z,85.17
2023-05-25T02:21:56.418Z,85.27
2023-05-25T02:22:57.395Z,84.86
2023-05-25T02:23:58.277Z,84.61
2023-05-25T02:24:59.278Z,84.20
2023-05-25T02:25:59.713Z,84.00
2023-05-25T02:27:01.479Z,83.90
2023-05-25T02:28:01.333Z,84.10
2023-05-25T02:29:02.295Z,84.20
2023-05-25T02:30:03.296Z,84.55
2023-05-25T02:31:04.157Z,84.86
2023-05-25T02:32:05.164Z,85.62
2023-05-25T02:33:05.732Z,85.72
2023-05-25T02:34:06.152Z,86.33
2023-05-25T02:35:07.116Z,86.89
2023-05-25T02:36:09.329Z,87.26
2023-05-25T02:37:08.939Z,87.40
2023-05-25T02:38:09.443Z,87.61
2023-05-25T02:39:11.421Z,88.02
2023-05-25T02:40:10.935Z,87.92
2023-05-25T02:41:12.925Z,87.82
2023-05-25T02:42:12.551Z,88.02
2023-05-25T02:43:12.995Z,87.77
2023-05-25T02:44:13.928Z,87.37
2023-05-25T02:45:14.819Z,86.40
2023-05-25T02:46:15.954Z,85.54
2023-05-25T02:47:16.556Z,85.03
2023-05-25T02:48:17.514Z,84.61
2023-05-25T02:49:18.534Z,85.68
2023-05-25T02:50:19.127Z,85.99
2023-05-25T02:53:08.272Z,87.05
2023-05-25T02:54:08.768Z,86.95
2023-05-25T02:55:09.802Z,86.85
2023-05-25T02:56:10.237Z,86.95
2023-05-25T02:57:11.119Z,86.95
2023-05-25T02:58:12.059Z,87.16
2023-05-25T02:59:35.305Z,87.37
2023-05-25T03:00:13.633Z,87.37
2023-05-25T03:01:14.745Z,87.05
2023-05-25T03:02:15.488Z,87.26
2023-05-25T03:03:15.961Z,87.67
2023-05-25T03:04:16.444Z,88.02
2023-05-25T03:05:17.441Z,87.88
2023-05-25T03:06:18.159Z,87.37
2023-05-25T03:07:18.640Z,87.46
2023-05-25T03:08:19.214Z,87.46
2023-05-25T03:09:20.112Z,86.60
2023-05-25T03:10:21.304Z,86.50
2023-05-25T03:11:21.681Z,85.95
2023-05-25T03:12:22.697Z,86.15
2023-05-25T03:13:23.621Z,85.95
2023-05-25T03:14:25.528Z,85.95
2023-05-25T03:15:25.433Z,85.95
2023-05-25T03:16:26.745Z,85.95
2023-05-25T03:17:27.304Z,86.15
2023-05-25T03:18:28.344Z,86.15
2023-05-25T03:19:28.837Z,86.05
2023-05-25T03:20:29.841Z,85.85
2023-05-25T03:21:30.312Z,85.85
2023-05-25T03:22:30.882Z,85.64
2023-05-25T03:23:31.320Z,85.44
2023-05-25T03:24:32.310Z,84.92
2023-05-25T03:25:36.617Z,84.92
2023-05-25T03:26:34.191Z,84.58
2023-05-25T03:27:36.089Z,84.37
2023-05-25T03:28:37.138Z,83.86
2023-05-25T03:29:36.694Z,83.72
2023-05-25T03:30:37.624Z,83.51
2023-05-25T03:31:38.515Z,83.20
2023-05-25T03:32:39.497Z,82.96
2023-05-25T03:33:40.090Z,82.35
2023-05-25T03:34:40.542Z,81.94
2023-05-25T03:35:41.527Z,81.38
2023-05-25T03:36:41.950Z,81.18
2023-05-25T03:37:43.837Z,80.88
2023-05-25T03:38:43.797Z,80.98
2023-05-25T03:39:45.135Z,80.98
2023-05-25T03:40:45.602Z,81.08
2023-05-25T03:41:46.506Z,81.18
2023-05-25T03:42:47.482Z,81.38
2023-05-25T03:43:48.497Z,81.59
2023-05-25T03:44:49.107Z,81.29
2023-05-25T03:46:12.079Z,81.38
2023-05-25T03:46:50.526Z,82.14
2023-05-25T03:47:51.202Z,82.24
2023-05-25T03:48:51.714Z,82.59
2023-05-25T03:49:52.318Z,82.59
2023-05-25T03:50:52.789Z,83.20
2023-05-25T03:51:53.399Z,83.51
2023-05-25T03:52:53.878Z,83.41
2023-05-25T03:53:54.371Z,83.06
2023-05-25T03:56:45.025Z,81.90
2023-05-25T03:57:47.000Z,81.84
2023-05-25T03:58:47.995Z,81.76
2023-05-25T03:59:47.402Z,79.88
2023-05-25T04:00:48.284Z,78.72
2023-05-25T04:01:49.184Z,77.97
2023-05-25T04:02:50.201Z,77.56
2023-05-25T04:03:50.722Z,77.66
2023-05-25T04:04:51.280Z,77.45
2023-05-25T04:05:52.208Z,78.20
2023-05-25T04:06:52.677Z,78.75
2023-05-25T04:08:15.943Z,78.96
2023-05-25T04:08:54.453Z,79.68
2023-05-25T04:09:55.005Z,79.88
2023-05-25T04:10:55.537Z,79.68
2023-05-25T04:11:56.585Z,79.37
2023-05-25T04:12:57.306Z,79.37
2023-05-25T04:13:57.808Z,80.33
2023-05-25T04:15:15.308Z,81.08
2023-05-25T04:15:59.663Z,81.18
2023-05-25T04:17:00.697Z,81.49
2023-05-25T04:18:01.629Z,81.49
2023-05-25T04:19:02.618Z,81.49
2023-05-25T04:20:03.361Z,81.15
2023-05-25T04:21:03.904Z,80.74
2023-05-25T04:23:53.376Z,78.52
2023-05-25T04:24:54.202Z,78.41
2023-05-25T04:25:56.171Z,78.61
2023-05-25T04:26:56.130Z,78.58
2023-05-25T04:27:57.071Z,78.92
2023-05-25T04:28:58.025Z,78.52
2023-05-25T04:30:19.861Z,78.92
2023-05-25T04:30:59.345Z,78.92
2023-05-25T04:31:59.759Z,79.47
2023-05-25T04:33:00.664Z,79.47
2023-05-25T04:34:01.570Z,79.37
2023-05-25T04:35:02.484Z,79.68
2023-05-25T04:36:03.470Z,79.53
2023-05-25T04:37:04.492Z,79.33
2023-05-25T04:38:04.949Z,79.02
2023-05-25T04:39:05.888Z,78.92
2023-05-25T04:40:06.895Z,79.13
2023-05-25T04:41:07.409Z,79.53
2023-05-25T04:42:07.847Z,79.33
2023-05-25T04:43:08.804Z,79.02
2023-05-25T04:44:10.447Z,79.02
2023-05-25T04:45:10.035Z,79.13
2023-05-25T04:46:11.098Z,78.68
2023-05-25T04:47:11.569Z,78.58
2023-05-25T04:48:12.493Z,78.13
2023-05-25T04:49:13.387Z,77.31
2023-05-25T04:50:14.317Z,76.87
2023-05-25T04:51:41.803Z,75.44
2023-05-25T04:52:16.954Z,76.06
2023-05-25T04:53:16.736Z,76.26
2023-05-25T04:54:17.310Z,76.36
2023-05-25T04:55:17.912Z,76.16
2023-05-25T04:56:18.418Z,76.26
2023-05-25T04:57:19.105Z,76.26
2023-05-25T04:58:19.671Z,76.26
2023-05-25T05:01:09.818Z,76.46
2023-05-25T05:02:09.916Z,76.56
2023-05-25T05:03:10.418Z,76.81
2023-05-25T05:04:10.856Z,77.22
2023-05-25T05:05:11.774Z,77.31
2023-05-25T05:06:12.732Z,77.42
2023-05-25T05:07:13.362Z,77.72
2023-05-25T05:08:13.940Z,77.52
2023-05-25T05:09:14.493Z,77.42
2023-05-25T05:10:15.416Z,77.22
2023-05-25T05:11:38.664Z,77.11
2023-05-25T05:12:17.401Z,77.86
2023-05-25T05:13:17.891Z,78.58
2023-05-25T05:14:19.048Z,78.23
2023-05-25T05:15:19.843Z,77.38
2023-05-25T05:16:20.463Z,76.73
2023-05-25T05:17:21.043Z,76.02
2023-05-25T05:20:10.616Z,76.12
2023-05-25T05:21:11.163Z,75.68
2023-05-25T05:22:12.137Z,75.13
2023-05-25T05:23:12.623Z,74.32
2023-05-25T05:24:13.572Z,73.88
2023-05-25T05:25:14.559Z,74.55
2023-05-25T05:26:15.019Z,75.27
2023-05-25T05:27:15.700Z,74.73
2023-05-25T05:28:16.384Z,74.21
2023-05-25T05:29:16.946Z,73.97
2023-05-25T05:30:17.615Z,73.33
2023-05-25T05:31:18.445Z,72.75
2023-05-25T05:32:19.302Z,72.75
2023-05-25T05:33:19.997Z,73.16
2023-05-25T05:34:20.616Z,72.86
2023-05-25T05:35:21.235Z,73.91
2023-05-25T05:36:22.277Z,74.11
2023-05-25T05:37:23.201Z,73.91
2023-05-25T05:38:24.264Z,74.93
2023-05-25T05:39:24.294Z,74.73
2023-05-25T05:40:25.162Z,74.21
2023-05-25T05:41:26.101Z,74.73
2023-05-25T05:42:26.970Z,75.03
2023-05-25T05:43:28.034Z,74.83
2023-05-25T05:44:29.612Z,74.73
2023-05-25T05:45:29.166Z,75.03
2023-05-25T05:46:52.254Z,75.27
2023-05-25T05:47:30.347Z,75.54
2023-05-25T05:48:30.745Z,75.03
2023-05-25T05:49:31.678Z,74.49
2023-05-25T05:50:33.020Z,73.13
2023-05-25T05:51:33.994Z,72.38
2023-05-25T05:52:35.021Z,71.94
2023-05-25T05:53:35.099Z,71.40
2023-05-25T05:54:35.505Z,70.45
2023-05-25T05:55:59.511Z,69.43
2023-05-25T05:56:38.115Z,69.64
2023-05-25T05:57:37.741Z,69.02
2023-05-25T05:58:38.601Z,69.36
2023-05-25T05:59:39.114Z,69.53
2023-05-25T06:00:42.385Z,69.64
2023-05-25T06:01:40.482Z,69.26
2023-05-25T06:02:41.966Z,70.41
2023-05-25T06:03:41.771Z,70.72
2023-05-25T06:04:42.349Z,70.82
2023-05-25T06:05:45.251Z,70.72
2023-05-25T06:06:43.397Z,70.72
2023-05-25T06:07:44.260Z,71.56
2023-05-25T06:08:45.236Z,71.77
2023-05-25T06:09:46.179Z,72.21
2023-05-25T06:10:47.463Z,73.26
2023-05-25T06:11:48.049Z,74.28
2023-05-25T06:12:48.896Z,73.97
2023-05-25T06:13:50.154Z,74.08
2023-05-25T06:14:50.866Z,74.18
2023-05-25T06:15:51.629Z,74.28
2023-05-25T06:16:52.514Z,74.58
2023-05-25T06:17:53.633Z,74.62
2023-05-25T06:18:54.004Z,75.34
2023-05-25T06:19:54.617Z,75.64
2023-05-25T06:20:55.339Z,75.40
2023-05-25T06:21:56.539Z,75.40
2023-05-25T06:22:57.288Z,75.51
2023-05-25T06:23:57.635Z,74.99
2023-05-25T06:24:57.934Z,75.10
2023-05-25T06:25:59.518Z,74.86
2023-05-25T06:26:59.055Z,73.57
2023-05-25T06:29:49.112Z,69.98
2023-05-25T06:30:49.322Z,68.62
2023-05-25T06:31:50.754Z,67.91
2023-05-25T06:32:50.658Z,67.47
2023-05-25T06:33:51.109Z,69.23
2023-05-25T06:34:52.870Z,71.70
2023-05-25T06:35:53.473Z,72.55
2023-05-25T06:36:54.198Z,73.19
2023-05-25T06:37:55.009Z,73.80
2023-05-25T06:38:54.772Z,72.96
2023-05-25T06:39:56.996Z,73.30
2023-05-25T06:40:57.146Z,73.50
2023-05-25T06:43:45.736Z,71.26
2023-05-25T06:44:46.964Z,70.92
2023-05-25T06:45:47.649Z,70.31
2023-05-25T06:46:48.439Z,70.01
2023-05-25T06:47:49.082Z,69.91
2023-05-25T06:48:49.798Z,70.86
2023-05-25T06:49:52.717Z,72.52
2023-05-25T06:50:51.158Z,72.31
2023-05-25T06:51:52.180Z,71.67
2023-05-25T06:52:52.679Z,71.16
2023-05-25T06:53:53.634Z,70.48
2023-05-25T06:54:54.913Z,70.08
2023-05-25T06:55:55.452Z,69.87
2023-05-25T06:56:57.474Z,69.98
2023-05-25T06:57:57.110Z,69.13
2023-05-25T06:58:57.733Z,68.93
2023-05-25T06:59:59.849Z,68.62
2023-05-25T07:00:58.826Z,69.17
2023-05-25T07:02:00.461Z,69.34
2023-05-25T07:03:00.027Z,69.03
2023-05-25T07:04:00.974Z,68.59
2023-05-25T07:05:01.351Z,69.17
2023-05-25T07:06:04.110Z,69.87
2023-05-25T07:07:03.953Z,69.87
2023-05-25T07:08:04.542Z,70.18
2023-05-25T07:09:04.215Z,70.48
2023-05-25T07:10:04.947Z,70.68
2023-05-25T07:11:05.428Z,70.52
2023-05-25T07:12:06.390Z,71.40
2023-05-25T07:13:08.158Z,73.19
2023-05-25T07:14:07.818Z,74.11
2023-05-25T07:15:08.746Z,74.01
2023-05-25T07:16:09.867Z,74.32
2023-05-25T07:17:11.141Z,74.41
2023-05-25T07:18:10.979Z,73.57
2023-05-25T07:21:00.829Z,72.28
2023-05-25T07:22:01.049Z,70.62
2023-05-25T07:23:02.470Z,69.98
2023-05-25T07:24:03.062Z,69.23
2023-05-25T07:25:02.948Z,67.31
2023-05-25T07:26:07.156Z,66.02
2023-05-25T07:28:55.539Z,68.01
2023-05-25T07:29:56.493Z,67.38
2023-05-25T07:30:55.424Z,67.17
2023-05-25T07:31:56.337Z,67.58
2023-05-25T07:32:57.335Z,66.94
2023-05-25T07:33:58.254Z,66.40
2023-05-25T07:34:59.234Z,66.70
2023-05-25T07:36:00.303Z,65.76
2023-05-25T07:37:00.704Z,65.15
2023-05-25T07:38:01.609Z,64.61
2023-05-25T07:39:02.634Z,66.08
2023-05-25T07:40:03.187Z,66.69
2023-05-25T07:42:52.716Z,67.54
2023-05-25T07:43:53.290Z,67.84
2023-05-25T07:44:56.176Z,67.57
2023-05-25T07:45:54.615Z,67.57
2023-05-25T07:46:55.022Z,68.21
2023-05-25T07:47:55.715Z,67.77
2023-05-25T07:51:22.835Z,66.93
2023-05-25T07:51:47.524Z,65.74
2023-05-25T07:52:46.355Z,66.25
2023-05-25T07:53:49.230Z,67.30
2023-05-25T07:54:48.875Z,68.35
2023-05-25T07:55:48.322Z,69.06
2023-05-25T07:58:39.216Z,68.35
2023-05-25T07:59:53.333Z,68.35
2023-05-25T08:00:40.378Z,68.21
2023-05-25T08:01:39.977Z,66.52
2023-05-25T08:02:42.106Z,66.49
2023-05-25T08:04:43.214Z,63.59
2023-05-25T08:05:42.851Z,63.35
2023-05-25T08:06:44.210Z,63.06
2023-05-25T08:07:44.225Z,63.35
2023-05-25T08:08:45.167Z,62.41
2023-05-25T08:09:46.066Z,61.07
2023-05-25T08:12:48.019Z,59.78
2023-05-25T08:13:37.500Z,60.57
2023-05-25T08:14:37.057Z,60.39
2023-05-25T08:15:39.272Z,61.20
2023-05-25T08:16:38.372Z,61.33
2023-05-25T08:17:38.896Z,62.24
2023-05-25T08:18:39.517Z,62.62
2023-05-25T08:19:40.478Z,61.91
2023-05-25T08:20:41.525Z,62.54
2023-05-25T08:21:42.191Z,63.26
2023-05-25T08:22:43.057Z,65.24
2023-05-25T08:23:43.968Z,65.75
2023-05-25T08:24:44.965Z,66.69
2023-05-25T08:25:45.997Z,66.80
2023-05-25T08:27:47.100Z,65.31
2023-05-25T08:28:48.062Z,64.24
2023-05-25T08:29:48.969Z,63.63
2023-05-25T08:30:49.885Z,62.96
2023-05-25T08:31:50.836Z,62.53
2023-05-25T08:34:40.757Z,60.07
2023-05-25T08:35:41.725Z,60.25
2023-05-25T08:36:41.966Z,59.71
2023-05-25T08:37:42.610Z,59.48
2023-05-25T08:38:43.028Z,58.34
2023-05-25T08:39:43.896Z,57.54
2023-05-25T08:42:33.621Z,57.79
2023-05-25T08:43:34.367Z,57.89
2023-05-25T08:44:53.805Z,58.43
2023-05-25T08:45:38.428Z,59.36
2023-05-25T08:46:38.586Z,60.74
2023-05-25T08:47:37.067Z,62.11
2023-05-25T08:48:42.342Z,62.85
2023-05-25T08:49:38.865Z,63.79
2023-05-25T08:50:39.247Z,64.00
2023-05-25T08:53:29.107Z,66.80
2023-05-25T08:54:29.707Z,66.05
2023-05-25T08:55:31.322Z,66.39
2023-05-25T08:56:30.811Z,65.55
2023-05-25T08:57:31.550Z,66.29
2023-05-25T08:58:32.164Z,65.31
2023-05-25T09:01:21.414Z,61.75
2023-05-25T09:02:22.048Z,61.75
2023-05-25T09:03:22.634Z,62.31
2023-05-25T09:04:23.212Z,62.62
2023-05-25T09:05:23.728Z,63.69
2023-05-25T09:06:24.643Z,64.30
2023-05-25T09:07:25.102Z,64.40
2023-05-25T09:08:26.060Z,64.40
2023-05-25T09:09:26.916Z,64.07
2023-05-25T09:10:27.883Z,63.63
2023-05-25T09:11:38.585Z,62.31
2023-05-25T09:12:30.657Z,62.11
2023-05-25T09:13:30.032Z,62.11
2023-05-25T09:14:31.026Z,62.41
2023-05-25T09:15:31.576Z,62.54
2023-05-25T09:16:31.977Z,63.01
2023-05-25T09:17:33.769Z,64.46
2023-05-25T09:18:34.513Z,65.17
2023-05-25T09:19:34.497Z,64.73
2023-05-25T09:20:35.469Z,63.59
2023-05-25T09:21:36.374Z,62.68
2023-05-25T09:22:38.283Z,62.98
2023-05-25T09:23:38.285Z,63.29
2023-05-25T09:24:39.172Z,63.18
2023-05-25T09:25:40.102Z,64.03
2023-05-25T09:26:41.064Z,65.91
2023-05-25T09:27:42.046Z,65.88
2023-05-25T09:28:43.875Z,65.58
2023-05-25T09:29:43.918Z,65.24
2023-05-25T09:30:44.979Z,64.84
2023-05-25T09:31:45.192Z,64.53
2023-05-25T09:32:46.111Z,64.30
2023-05-25T09:33:47.053Z,62.88
2023-05-25T09:34:47.937Z,63.18
2023-05-25T09:35:48.616Z,63.39
2023-05-25T09:38:51.142Z,61.94
2023-05-25T09:39:42.132Z,61.40
2023-05-25T09:40:42.138Z,60.26
2023-05-25T09:41:42.245Z,59.32
2023-05-25T09:42:42.712Z,60.16
2023-05-25T09:43:51.757Z,59.12
2023-05-25T09:44:46.152Z,58.99
2023-05-25T09:45:45.315Z,58.20
2023-05-25T09:46:45.749Z,58.31
2023-05-25T09:47:46.698Z,58.11
2023-05-25T09:48:47.818Z,58.11
2023-05-25T09:49:48.809Z,58.00
2023-05-25T09:50:50.119Z,57.70
2023-05-25T09:51:49.985Z,57.90
2023-05-25T09:52:50.972Z,58.13
2023-05-25T09:53:50.922Z,59.81
2023-05-25T09:54:51.813Z,61.16
2023-05-25T09:57:43.650Z,62.78
2023-05-25T09:58:44.485Z,62.68
2023-05-25T09:59:43.957Z,62.88
2023-05-25T10:00:45.275Z,62.45
2023-05-25T10:01:45.073Z,62.04
2023-05-25T10:02:45.967Z,62.04
2023-05-25T10:05:50.506Z,60.39
2023-05-25T10:06:36.525Z,60.39
2023-05-25T10:07:51.626Z,60.26
2023-05-25T10:08:37.948Z,58.81
2023-05-25T10:09:41.296Z,57.17
2023-05-25T10:10:39.208Z,57.87
2023-05-25T10:11:46.761Z,57.65
2023-05-25T10:12:40.660Z,56.30
2023-05-25T10:13:41.584Z,55.85
2023-05-25T10:14:42.445Z,55.44
2023-05-25T10:15:43.475Z,55.32
2023-05-25T10:16:44.013Z,55.72
2023-05-25T10:19:33.632Z,54.89
2023-05-25T10:20:36.146Z,54.33
2023-05-25T10:21:35.756Z,55.47
2023-05-25T10:22:35.121Z,55.47
2023-05-25T10:23:39.121Z,55.67
2023-05-25T10:24:37.074Z,55.57
2023-05-25T10:27:28.121Z,55.14
2023-05-25T10:30:23.526Z,54.18
2023-05-25T10:31:44.128Z,53.42
2023-05-25T10:32:24.851Z,52.17
2023-05-25T10:33:25.575Z,51.73
2023-05-25T10:34:26.984Z,52.76
2023-05-25T10:36:27.861Z,53.34
2023-05-25T10:37:31.100Z,55.44
2023-05-25T10:38:43.826Z,56.13
2023-05-25T10:39:29.772Z,55.77
2023-05-25T10:40:30.960Z,54.74
2023-05-25T10:41:32.334Z,53.65
2023-05-25T10:42:33.592Z,52.17
2023-05-25T10:43:32.718Z,50.00
2023-05-25T10:44:33.537Z,49.48
2023-05-25T10:47:42.234Z,47.52
2023-05-25T10:48:42.251Z,47.44
2023-05-25T10:49:57.119Z,48.72
2023-05-25T10:50:42.796Z,50.57
2023-05-25T10:51:45.945Z,51.31
2023-05-25T10:52:44.756Z,52.56
2023-05-25T10:55:34.127Z,53.27
2023-05-25T10:56:34.623Z,53.00
2023-05-25T10:57:34.323Z,53.17
2023-05-25T10:58:36.559Z,52.94
2023-05-25T10:59:35.448Z,52.11
2023-05-25T11:00:36.479Z,51.99
2023-05-25T11:01:37.428Z,50.63
2023-05-25T11:02:39.248Z,50.28
2023-05-25T11:03:38.822Z,48.43
2023-05-25T11:04:39.746Z,46.97
2023-05-25T11:05:40.916Z,44.95
2023-05-25T11:06:41.497Z,45.47
2023-05-25T11:07:41.997Z,45.87
2023-05-25T11:09:04.239Z,46.41
2023-05-25T11:09:43.248Z,47.28
2023-05-25T11:10:43.801Z,50.05
2023-05-25T11:11:45.319Z,49.75
2023-05-25T11:12:44.835Z,50.40
2023-05-25T11:13:45.853Z,50.68
2023-05-25T11:14:48.317Z,50.15
2023-05-25T11:15:47.362Z,50.56
2023-05-25T11:16:47.971Z,50.27
2023-05-25T11:17:48.479Z,50.98
2023-05-25T11:18:48.885Z,51.71
2023-05-25T11:19:51.127Z,52.11
2023-05-25T11:20:50.875Z,52.31
2023-05-25T11:21:52.452Z,53.34
2023-05-25T11:22:52.470Z,53.72
2023-05-25T11:23:52.492Z,51.84
2023-05-25T11:24:53.515Z,52.11
2023-05-25T11:29:45.255Z,50.25
2023-05-25T11:30:44.107Z,50.96
2023-05-25T11:31:56.161Z,51.36
2023-05-25T11:32:42.254Z,50.98
2023-05-25T11:33:42.662Z,51.18
2023-05-25T11:34:47.054Z,51.59
2023-05-25T11:39:25.703Z,52.31
2023-05-25T11:40:30.837Z,52.22
2023-05-25T11:41:37.755Z,52.11
2023-05-25T11:42:24.568Z,49.99
2023-05-25T11:43:24.661Z,51.43
2023-05-25T11:44:26.874Z,52.04
2023-05-25T11:45:53.661Z,51.51
2023-05-25T11:46:35.511Z,51.08
2023-05-25T11:47:29.569Z,50.56
2023-05-25T11:48:28.306Z,50.15
2023-05-25T11:49:28.975Z,49.10
2023-05-25T11:50:29.455Z,47.74
2023-05-25T11:51:35.921Z,47.39
2023-05-25T11:52:32.657Z,47.09
2023-05-25T11:53:32.532Z,46.27
2023-05-25T11:54:33.669Z,45.83
2023-05-25T11:55:33.433Z,45.40
2023-05-25T11:56:35.898Z,44.04
2023-05-25T11:57:35.033Z,45.17
2023-05-25T11:58:36.175Z,45.25
2023-05-25T11:59:36.867Z,44.52
2023-05-25T12:00:37.787Z,44.20
2023-05-25T12:01:38.990Z,43.68
2023-05-25T12:02:38.534Z,42.47
2023-05-25T12:03:39.262Z,42.60
2023-05-25T12:06:38.592Z,45.17
2023-05-25T12:07:31.210Z,45.34
2023-05-25T12:08:44.803Z,45.04
2023-05-25T12:09:31.919Z,44.64
2023-05-25T12:10:31.717Z,45.14
2023-05-25T12:11:32.371Z,44.14
2023-05-25T12:14:27.223Z,44.24
2023-05-25T12:15:23.184Z,44.87
2023-05-25T12:16:24.149Z,46.01
2023-05-25T12:17:24.298Z,46.11
2023-05-25T12:18:24.887Z,46.31
2023-05-25T12:19:26.232Z,47.14
2023-05-25T12:20:26.205Z,47.19
2023-05-25T12:21:27.107Z,48.52
2023-05-25T12:22:28.103Z,49.67
2023-05-25T12:23:29.847Z,51.23
2023-05-25T12:24:29.965Z,51.43
2023-05-25T12:31:04.668Z,48.61
2023-05-25T12:32:05.015Z,47.86
2023-05-25T12:33:05.607Z,47.97
2023-05-25T12:34:12.737Z,47.97
2023-05-25T12:35:06.581Z,48.47
2023-05-25T12:36:08.275Z,49.19
2023-05-25T12:37:22.350Z,48.92
2023-05-25T12:38:32.662Z,48.32
2023-05-25T12:39:09.773Z,47.00
2023-05-25T12:42:06.303Z,48.44
2023-05-25T12:48:34.038Z,46.46
2023-05-25T12:49:34.571Z,46.36
2023-05-25T12:50:37.067Z,47.06
2023-05-25T12:51:35.837Z,47.19
2023-05-25T12:52:36.887Z,47.99
2023-05-25T12:53:37.426Z,47.89
2023-05-25T12:56:28.767Z,48.41
2023-05-25T12:57:29.571Z,48.41
2023-05-25T12:58:30.036Z,49.15
2023-05-25T12:59:32.140Z,50.15
2023-05-25T13:00:32.660Z,50.53
2023-05-25T13:01:32.179Z,50.31
2023-05-25T13:04:22.311Z,48.40
2023-05-25T13:05:22.611Z,47.27
2023-05-25T13:06:23.535Z,46.62
2023-05-25T13:07:25.244Z,45.00
2023-05-25T13:08:25.782Z,44.72
2023-05-25T13:09:27.772Z,45.25
2023-05-25T13:12:16.970Z,46.94
2023-05-25T13:13:16.030Z,47.34
2023-05-25T13:14:16.696Z,47.22
2023-05-25T13:15:17.159Z,46.44
2023-05-25T13:16:17.964Z,47.24
2023-05-25T13:17:18.504Z,47.64
2023-05-25T13:18:19.007Z,47.44
2023-05-25T13:19:20.008Z,47.36
2023-05-25T13:20:21.263Z,47.86
2023-05-25T13:21:21.861Z,48.37
2023-05-25T13:22:22.402Z,48.87
2023-05-25T13:23:22.873Z,48.29
2023-05-25T13:24:23.609Z,48.97
2023-05-25T13:25:25.268Z,46.92
2023-05-25T13:26:24.754Z,44.84
2023-05-25T13:27:25.275Z,43.26
2023-05-25T13:28:26.228Z,41.38
2023-05-25T13:29:27.150Z,40.25
2023-05-25T13:30:28.116Z,39.09
2023-05-25T13:31:28.785Z,40.53
2023-05-25T13:32:29.356Z,41.35
2023-05-25T13:33:29.768Z,42.47
2023-05-25T13:36:19.698Z,44.24
2023-05-25T13:37:20.477Z,44.96
2023-05-25T13:38:28.666Z,44.67
2023-05-25T13:39:21.568Z,45.18
2023-05-25T13:40:22.447Z,46.23
2023-05-25T13:41:23.339Z,46.73
2023-05-25T13:42:43.532Z,46.54
2023-05-25T13:43:24.878Z,46.36
2023-05-25T13:44:25.799Z,45.95
2023-05-25T13:45:26.808Z,45.75
2023-05-25T13:47:29.702Z,43.96
2023-05-25T13:48:29.347Z,42.72
2023-05-25T13:51:19.893Z,42.60
2023-05-25T13:53:04.780Z,43.12
2023-05-25T13:53:24.394Z,43.04
2023-05-25T13:56:10.998Z,45.75
2023-05-25T13:57:11.573Z,46.06
2023-05-25T13:58:12.351Z,46.44
2023-05-25T13:59:13.093Z,45.65
2023-05-25T14:00:13.678Z,46.56
2023-05-25T14:01:14.120Z,46.26
2023-05-25T14:02:14.722Z,46.18
2023-05-25T14:03:15.737Z,46.78
2023-05-25T14:04:16.204Z,46.98
2023-05-25T14:05:17.090Z,47.28
2023-05-25T14:06:17.995Z,46.18
2023-05-25T14:07:18.864Z,46.66
2023-05-25T14:08:19.839Z,45.51
2023-05-25T14:09:20.680Z,45.81
2023-05-25T14:10:21.565Z,45.06
2023-05-25T14:11:28.628Z,43.12
2023-05-25T14:12:24.278Z,42.32
2023-05-25T14:13:24.211Z,44.04
2023-05-25T14:14:32.144Z,44.24
2023-05-25T14:15:26.885Z,43.54
2023-05-25T14:16:26.815Z,44.24
2023-05-25T14:17:27.798Z,44.46
2023-05-25T14:18:28.743Z,44.99
2023-05-25T14:19:29.615Z,45.71
2023-05-25T14:20:30.487Z,45.73
2023-05-25T14:21:31.378Z,46.66
2023-05-25T14:22:32.459Z,46.76
2023-05-25T14:23:32.875Z,46.58
2023-05-25T14:24:33.780Z,46.88
2023-05-25T14:25:34.656Z,46.98
2023-05-25T14:26:35.603Z,46.56
2023-05-25T14:27:36.460Z,46.76
2023-05-25T14:28:37.652Z,47.06
2023-05-25T14:29:38.016Z,46.78
2023-05-25T14:30:38.901Z,47.81
2023-05-25T14:31:39.809Z,47.71
2023-05-25T14:32:40.712Z,47.49
2023-05-25T14:33:43.132Z,46.54
2023-05-25T14:34:42.196Z,46.03
2023-05-25T14:35:43.562Z,45.83
2023-05-25T14:36:43.615Z,45.63
2023-05-25T14:37:44.505Z,45.51
2023-05-25T14:38:45.452Z,45.61
2023-05-25T14:39:46.278Z,45.83